sensor_id;sensor_type;location;lat;lon;timestamp;P1;durP1;ratioP1;P2;durP2;ratioP2
25567;SDS011;13455;51.480;7.594;2022-09-17T00:01:57;11.65;;;2.83;;
25567;SDS011;13455;51.480;7.594;2022-09-17T00:04:23;11.15;;;2.90;;
25567;SDS011;13455;51.480;7.594;2022-09-17T00:06:49;9.48;;;2.88;;
25567;SDS011;13455;51.480;7.594;2022-09-17T00:09:15;12.75;;;3.22;;
25567;SDS011;13455;51.480;7.594;2022-09-17T00:11:42;9.88;;;3.08;;
25567;SDS011;13455;51.480;7.594;2022-09-17T00:14:11;13.27;;;3.45;;
25567;SDS011;13455;51.480;7.594;2022-09-17T00:16:39;14.32;;;3.20;;
25567;SDS011;13455;51.480;7.594;2022-09-17T00:19:06;13.93;;;3.22;;
25567;SDS011;13455;51.480;7.594;2022-09-17T00:21:34;15.20;;;3.70;;
25567;SDS011;13455;51.480;7.594;2022-09-17T00:24:01;12.80;;;3.20;;
25567;SDS011;13455;51.480;7.594;2022-09-17T00:26:28;14.07;;;3.30;;
25567;SDS011;13455;51.480;7.594;2022-09-17T00:28:55;14.33;;;3.47;;
25567;SDS011;13455;51.480;7.594;2022-09-17T00:31:22;12.03;;;3.43;;
25567;SDS011;13455;51.480;7.594;2022-09-17T00:33:48;11.70;;;4.13;;
25567;SDS011;13455;51.480;7.594;2022-09-17T00:36:14;14.00;;;4.32;;
25567;SDS011;13455;51.480;7.594;2022-09-17T00:38:40;16.10;;;4.72;;
25567;SDS011;13455;51.480;7.594;2022-09-17T00:41:06;14.10;;;4.72;;
25567;SDS011;13455;51.480;7.594;2022-09-17T00:46:08;14.80;;;5.95;;
25567;SDS011;13455;51.480;7.594;2022-09-17T00:48:47;13.40;;;6.05;;
25567;SDS011;13455;51.480;7.594;2022-09-17T00:51:13;18.23;;;6.75;;
25567;SDS011;13455;51.480;7.594;2022-09-17T00:53:42;16.47;;;7.87;;
25567;SDS011;13455;51.480;7.594;2022-09-17T00:56:28;17.38;;;8.77;;
25567;SDS011;13455;51.480;7.594;2022-09-17T00:58:56;20.75;;;10.02;;
25567;SDS011;13455;51.480;7.594;2022-09-17T01:01:22;21.87;;;10.80;;
25567;SDS011;13455;51.480;7.594;2022-09-17T01:03:48;21.30;;;11.63;;
25567;SDS011;13455;51.480;7.594;2022-09-17T01:09:38;21.80;;;11.00;;
25567;SDS011;13455;51.480;7.594;2022-09-17T01:12:40;17.70;;;9.82;;
25567;SDS011;13455;51.480;7.594;2022-09-17T01:23:44;17.30;;;7.10;;
25567;SDS011;13455;51.480;7.594;2022-09-17T01:26:56;15.75;;;6.50;;
25567;SDS011;13455;51.480;7.594;2022-09-17T01:35:04;19.42;;;5.40;;
25567;SDS011;13455;51.480;7.594;2022-09-17T01:37:46;15.20;;;5.05;;
25567;SDS011;13455;51.480;7.594;2022-09-17T01:41:03;15.00;;;4.75;;
25567;SDS011;13455;51.480;7.594;2022-09-17T01:43:08;16.08;;;4.50;;
25567;SDS011;13455;51.480;7.594;2022-09-17T01:45:59;13.32;;;4.45;;
25567;SDS011;13455;51.480;7.594;2022-09-17T01:48:33;11.23;;;4.28;;
25567;SDS011;13455;51.480;7.594;2022-09-17T01:51:13;12.27;;;4.20;;
25567;SDS011;13455;51.480;7.594;2022-09-17T01:56:20;13.88;;;4.38;;
25567;SDS011;13455;51.480;7.594;2022-09-17T01:58:52;15.02;;;4.65;;
25567;SDS011;13455;51.480;7.594;2022-09-17T02:01:18;17.27;;;5.07;;
25567;SDS011;13455;51.480;7.594;2022-09-17T02:03:58;17.10;;;5.67;;
25567;SDS011;13455;51.480;7.594;2022-09-17T02:06:28;20.20;;;5.70;;
25567;SDS011;13455;51.480;7.594;2022-09-17T02:08:57;19.45;;;6.78;;
25567;SDS011;13455;51.480;7.594;2022-09-17T02:11:25;19.67;;;8.05;;
25567;SDS011;13455;51.480;7.594;2022-09-17T02:19:08;20.05;;;8.00;;
25567;SDS011;13455;51.480;7.594;2022-09-17T02:29:37;27.20;;;10.43;;
25567;SDS011;13455;51.480;7.594;2022-09-17T02:32:04;27.42;;;10.73;;
25567;SDS011;13455;51.480;7.594;2022-09-17T02:34:30;24.77;;;10.88;;
25567;SDS011;13455;51.480;7.594;2022-09-17T02:36:57;27.73;;;11.02;;
25567;SDS011;13455;51.480;7.594;2022-09-17T02:39:23;25.55;;;11.45;;
25567;SDS011;13455;51.480;7.594;2022-09-17T02:41:55;23.58;;;11.27;;
25567;SDS011;13455;51.480;7.594;2022-09-17T02:44:25;23.08;;;11.00;;
25567;SDS011;13455;51.480;7.594;2022-09-17T02:55:40;24.83;;;10.40;;
25567;SDS011;13455;51.480;7.594;2022-09-17T02:58:20;22.77;;;9.43;;
25567;SDS011;13455;51.480;7.594;2022-09-17T03:00:49;22.40;;;9.10;;
25567;SDS011;13455;51.480;7.594;2022-09-17T03:03:37;19.05;;;8.38;;
25567;SDS011;13455;51.480;7.594;2022-09-17T03:06:07;21.88;;;7.60;;
25567;SDS011;13455;51.480;7.594;2022-09-17T03:08:37;21.30;;;7.95;;
25567;SDS011;13455;51.480;7.594;2022-09-17T03:11:06;16.98;;;7.88;;
25567;SDS011;13455;51.480;7.594;2022-09-17T03:13:33;19.88;;;6.97;;
25567;SDS011;13455;51.480;7.594;2022-09-17T03:16:00;25.85;;;7.10;;
25567;SDS011;13455;51.480;7.594;2022-09-17T03:18:27;25.02;;;6.65;;
25567;SDS011;13455;51.480;7.594;2022-09-17T03:20:52;23.03;;;6.20;;
25567;SDS011;13455;51.480;7.594;2022-09-17T03:23:18;21.00;;;6.10;;
25567;SDS011;13455;51.480;7.594;2022-09-17T03:25:44;18.10;;;5.67;;
25567;SDS011;13455;51.480;7.594;2022-09-17T03:28:10;22.83;;;6.13;;
25567;SDS011;13455;51.480;7.594;2022-09-17T03:30:36;17.07;;;4.60;;
25567;SDS011;13455;51.480;7.594;2022-09-17T03:33:02;20.00;;;5.20;;
25567;SDS011;13455;51.480;7.594;2022-09-17T03:35:28;16.77;;;5.00;;
25567;SDS011;13455;51.480;7.594;2022-09-17T03:37:53;17.83;;;4.60;;
25567;SDS011;13455;51.480;7.594;2022-09-17T03:40:19;17.52;;;4.65;;
25567;SDS011;13455;51.480;7.594;2022-09-17T03:42:45;19.52;;;4.47;;
25567;SDS011;13455;51.480;7.594;2022-09-17T03:45:10;16.88;;;4.60;;
25567;SDS011;13455;51.480;7.594;2022-09-17T03:47:36;19.98;;;4.55;;
25567;SDS011;13455;51.480;7.594;2022-09-17T03:50:02;15.13;;;4.40;;
25567;SDS011;13455;51.480;7.594;2022-09-17T03:52:29;18.40;;;4.28;;
25567;SDS011;13455;51.480;7.594;2022-09-17T03:54:55;16.93;;;4.40;;
25567;SDS011;13455;51.480;7.594;2022-09-17T03:57:20;19.07;;;4.03;;
25567;SDS011;13455;51.480;7.594;2022-09-17T03:59:46;19.98;;;4.63;;
25567;SDS011;13455;51.480;7.594;2022-09-17T04:02:12;18.38;;;4.60;;
25567;SDS011;13455;51.480;7.594;2022-09-17T04:04:38;18.05;;;4.05;;
25567;SDS011;13455;51.480;7.594;2022-09-17T04:07:04;20.98;;;4.30;;
25567;SDS011;13455;51.480;7.594;2022-09-17T04:09:30;17.80;;;4.25;;
25567;SDS011;13455;51.480;7.594;2022-09-17T04:11:55;17.57;;;4.07;;
25567;SDS011;13455;51.480;7.594;2022-09-17T04:14:21;18.13;;;4.10;;
25567;SDS011;13455;51.480;7.594;2022-09-17T04:16:47;23.57;;;4.60;;
25567;SDS011;13455;51.480;7.594;2022-09-17T04:19:12;23.60;;;4.30;;
25567;SDS011;13455;51.480;7.594;2022-09-17T04:21:38;16.90;;;3.83;;
25567;SDS011;13455;51.480;7.594;2022-09-17T04:24:03;17.93;;;3.90;;
25567;SDS011;13455;51.480;7.594;2022-09-17T04:26:29;20.60;;;4.30;;
25567;SDS011;13455;51.480;7.594;2022-09-17T04:28:55;22.00;;;4.30;;
25567;SDS011;13455;51.480;7.594;2022-09-17T04:31:20;20.37;;;3.80;;
25567;SDS011;13455;51.480;7.594;2022-09-17T04:33:51;21.92;;;4.30;;
25567;SDS011;13455;51.480;7.594;2022-09-17T04:36:16;16.92;;;3.80;;
25567;SDS011;13455;51.480;7.594;2022-09-17T04:38:42;20.23;;;3.97;;
25567;SDS011;13455;51.480;7.594;2022-09-17T04:41:08;16.15;;;4.13;;
25567;SDS011;13455;51.480;7.594;2022-09-17T04:43:33;16.77;;;3.70;;
25567;SDS011;13455;51.480;7.594;2022-09-17T04:45:59;19.33;;;3.90;;
25567;SDS011;13455;51.480;7.594;2022-09-17T04:48:24;19.77;;;3.70;;
25567;SDS011;13455;51.480;7.594;2022-09-17T04:50:50;14.95;;;3.45;;
25567;SDS011;13455;51.480;7.594;2022-09-17T04:53:16;16.58;;;3.67;;
25567;SDS011;13455;51.480;7.594;2022-09-17T04:55:42;18.53;;;3.63;;
25567;SDS011;13455;51.480;7.594;2022-09-17T04:58:08;19.27;;;3.50;;
25567;SDS011;13455;51.480;7.594;2022-09-17T05:00:34;15.23;;;3.28;;
25567;SDS011;13455;51.480;7.594;2022-09-17T05:02:59;20.80;;;3.63;;
25567;SDS011;13455;51.480;7.594;2022-09-17T05:05:25;16.08;;;3.40;;
25567;SDS011;13455;51.480;7.594;2022-09-17T05:07:51;18.33;;;3.50;;
25567;SDS011;13455;51.480;7.594;2022-09-17T05:10:18;17.50;;;3.20;;
25567;SDS011;13455;51.480;7.594;2022-09-17T05:12:48;16.38;;;3.13;;
25567;SDS011;13455;51.480;7.594;2022-09-17T05:15:15;15.50;;;3.20;;
25567;SDS011;13455;51.480;7.594;2022-09-17T05:17:41;16.15;;;3.10;;
25567;SDS011;13455;51.480;7.594;2022-09-17T05:20:07;18.87;;;2.80;;
25567;SDS011;13455;51.480;7.594;2022-09-17T05:22:33;15.15;;;3.08;;
25567;SDS011;13455;51.480;7.594;2022-09-17T05:24:59;16.20;;;3.20;;
25567;SDS011;13455;51.480;7.594;2022-09-17T05:27:25;17.23;;;3.00;;
25567;SDS011;13455;51.480;7.594;2022-09-17T05:29:50;15.63;;;2.90;;
25567;SDS011;13455;51.480;7.594;2022-09-17T05:32:16;15.50;;;2.50;;
25567;SDS011;13455;51.480;7.594;2022-09-17T05:34:41;14.30;;;2.87;;
25567;SDS011;13455;51.480;7.594;2022-09-17T05:37:10;13.10;;;2.43;;
25567;SDS011;13455;51.480;7.594;2022-09-17T05:39:36;16.50;;;2.65;;
25567;SDS011;13455;51.480;7.594;2022-09-17T05:42:01;14.63;;;2.50;;
25567;SDS011;13455;51.480;7.594;2022-09-17T05:44:27;16.25;;;2.50;;
25567;SDS011;13455;51.480;7.594;2022-09-17T05:46:53;11.63;;;2.40;;
25567;SDS011;13455;51.480;7.594;2022-09-17T05:49:18;17.77;;;2.30;;
25567;SDS011;13455;51.480;7.594;2022-09-17T05:51:44;14.10;;;2.30;;
25567;SDS011;13455;51.480;7.594;2022-09-17T05:54:10;15.60;;;2.40;;
25567;SDS011;13455;51.480;7.594;2022-09-17T05:56:35;12.60;;;2.40;;
25567;SDS011;13455;51.480;7.594;2022-09-17T05:59:01;13.10;;;2.23;;
25567;SDS011;13455;51.480;7.594;2022-09-17T06:01:27;14.50;;;2.17;;
25567;SDS011;13455;51.480;7.594;2022-09-17T06:03:53;12.50;;;2.60;;
25567;SDS011;13455;51.480;7.594;2022-09-17T06:06:18;12.13;;;2.13;;
25567;SDS011;13455;51.480;7.594;2022-09-17T06:08:44;9.65;;;1.90;;
25567;SDS011;13455;51.480;7.594;2022-09-17T06:11:10;10.57;;;2.08;;
25567;SDS011;13455;51.480;7.594;2022-09-17T06:13:35;12.57;;;2.00;;
25567;SDS011;13455;51.480;7.594;2022-09-17T06:16:01;10.73;;;2.20;;
25567;SDS011;13455;51.480;7.594;2022-09-17T06:18:28;13.95;;;2.10;;
25567;SDS011;13455;51.480;7.594;2022-09-17T06:20:55;15.90;;;2.15;;
25567;SDS011;13455;51.480;7.594;2022-09-17T06:23:25;11.43;;;2.00;;
25567;SDS011;13455;51.480;7.594;2022-09-17T06:25:58;11.15;;;2.17;;
25567;SDS011;13455;51.480;7.594;2022-09-17T06:28:25;11.70;;;2.00;;
25567;SDS011;13455;51.480;7.594;2022-09-17T06:30:51;11.88;;;1.90;;
25567;SDS011;13455;51.480;7.594;2022-09-17T06:33:19;9.23;;;1.75;;
25567;SDS011;13455;51.480;7.594;2022-09-17T06:35:45;14.13;;;2.17;;
25567;SDS011;13455;51.480;7.594;2022-09-17T06:38:11;11.43;;;1.73;;
25567;SDS011;13455;51.480;7.594;2022-09-17T06:40:37;11.13;;;2.00;;
25567;SDS011;13455;51.480;7.594;2022-09-17T06:43:02;12.02;;;2.00;;
25567;SDS011;13455;51.480;7.594;2022-09-17T06:45:28;12.55;;;1.90;;
25567;SDS011;13455;51.480;7.594;2022-09-17T06:47:54;10.02;;;1.75;;
25567;SDS011;13455;51.480;7.594;2022-09-17T06:50:20;10.05;;;2.08;;
25567;SDS011;13455;51.480;7.594;2022-09-17T06:52:47;11.05;;;1.90;;
25567;SDS011;13455;51.480;7.594;2022-09-17T06:55:13;8.85;;;1.70;;
25567;SDS011;13455;51.480;7.594;2022-09-17T06:57:40;9.45;;;1.80;;
25567;SDS011;13455;51.480;7.594;2022-09-17T07:00:06;11.00;;;1.83;;
25567;SDS011;13455;51.480;7.594;2022-09-17T07:02:33;10.80;;;1.80;;
25567;SDS011;13455;51.480;7.594;2022-09-17T07:04:59;12.80;;;1.60;;
25567;SDS011;13455;51.480;7.594;2022-09-17T07:07:25;8.67;;;1.67;;
25567;SDS011;13455;51.480;7.594;2022-09-17T07:09:51;9.63;;;1.65;;
25567;SDS011;13455;51.480;7.594;2022-09-17T07:12:17;8.97;;;1.60;;
25567;SDS011;13455;51.480;7.594;2022-09-17T07:14:44;10.57;;;1.63;;
25567;SDS011;13455;51.480;7.594;2022-09-17T07:17:11;9.38;;;1.75;;
25567;SDS011;13455;51.480;7.594;2022-09-17T07:19:37;11.47;;;2.03;;
25567;SDS011;13455;51.480;7.594;2022-09-17T07:22:03;8.93;;;1.63;;
25567;SDS011;13455;51.480;7.594;2022-09-17T07:24:29;9.27;;;1.75;;
25567;SDS011;13455;51.480;7.594;2022-09-17T07:26:55;11.57;;;1.80;;
25567;SDS011;13455;51.480;7.594;2022-09-17T07:29:21;10.73;;;2.00;;
25567;SDS011;13455;51.480;7.594;2022-09-17T07:31:50;11.05;;;1.75;;
25567;SDS011;13455;51.480;7.594;2022-09-17T07:34:16;9.57;;;1.75;;
25567;SDS011;13455;51.480;7.594;2022-09-17T07:36:42;9.90;;;1.80;;
25567;SDS011;13455;51.480;7.594;2022-09-17T07:39:09;12.07;;;2.05;;
25567;SDS011;13455;51.480;7.594;2022-09-17T07:41:37;11.00;;;1.90;;
25567;SDS011;13455;51.480;7.594;2022-09-17T07:44:03;8.85;;;1.60;;
25567;SDS011;13455;51.480;7.594;2022-09-17T07:46:30;12.40;;;1.83;;
25567;SDS011;13455;51.480;7.594;2022-09-17T07:48:56;6.97;;;1.50;;
25567;SDS011;13455;51.480;7.594;2022-09-17T07:51:23;9.38;;;1.52;;
25567;SDS011;13455;51.480;7.594;2022-09-17T07:53:53;9.82;;;1.75;;
25567;SDS011;13455;51.480;7.594;2022-09-17T07:56:20;7.57;;;1.38;;
25567;SDS011;13455;51.480;7.594;2022-09-17T07:58:46;7.07;;;1.23;;
25567;SDS011;13455;51.480;7.594;2022-09-17T08:01:12;10.15;;;1.35;;
25567;SDS011;13455;51.480;7.594;2022-09-17T08:03:42;8.55;;;1.52;;
25567;SDS011;13455;51.480;7.594;2022-09-17T08:06:10;7.23;;;1.57;;
25567;SDS011;13455;51.480;7.594;2022-09-17T08:08:37;7.07;;;1.38;;
25567;SDS011;13455;51.480;7.594;2022-09-17T08:11:04;10.20;;;1.60;;
25567;SDS011;13455;51.480;7.594;2022-09-17T08:13:32;7.70;;;1.40;;
25567;SDS011;13455;51.480;7.594;2022-09-17T08:16:02;12.15;;;1.70;;
25567;SDS011;13455;51.480;7.594;2022-09-17T08:18:29;10.85;;;1.92;;
25567;SDS011;13455;51.480;7.594;2022-09-17T08:20:56;11.38;;;1.83;;
25567;SDS011;13455;51.480;7.594;2022-09-17T08:23:25;8.85;;;1.77;;
25567;SDS011;13455;51.480;7.594;2022-09-17T08:25:53;8.93;;;1.60;;
25567;SDS011;13455;51.480;7.594;2022-09-17T08:28:22;9.32;;;1.73;;
25567;SDS011;13455;51.480;7.594;2022-09-17T08:30:49;9.35;;;1.80;;
25567;SDS011;13455;51.480;7.594;2022-09-17T08:33:18;11.75;;;2.03;;
25567;SDS011;13455;51.480;7.594;2022-09-17T08:35:53;8.50;;;1.50;;
25567;SDS011;13455;51.480;7.594;2022-09-17T08:38:23;8.70;;;1.60;;
25567;SDS011;13455;51.480;7.594;2022-09-17T08:40:53;11.55;;;1.80;;
25567;SDS011;13455;51.480;7.594;2022-09-17T08:43:21;12.73;;;2.00;;
25567;SDS011;13455;51.480;7.594;2022-09-17T08:45:52;8.07;;;1.57;;
25567;SDS011;13455;51.480;7.594;2022-09-17T08:48:19;8.98;;;1.50;;
25567;SDS011;13455;51.480;7.594;2022-09-17T08:50:45;9.57;;;1.70;;
25567;SDS011;13455;51.480;7.594;2022-09-17T08:55:45;10.68;;;1.45;;
25567;SDS011;13455;51.480;7.594;2022-09-17T08:58:50;7.80;;;1.47;;
25567;SDS011;13455;51.480;7.594;2022-09-17T09:07:07;8.25;;;1.40;;
25567;SDS011;13455;51.480;7.594;2022-09-17T09:09:38;6.20;;;1.30;;
25567;SDS011;13455;51.480;7.594;2022-09-17T09:12:27;6.22;;;1.30;;
25567;SDS011;13455;51.480;7.594;2022-09-17T09:17:26;6.10;;;1.30;;
25567;SDS011;13455;51.480;7.594;2022-09-17T09:19:56;7.25;;;1.50;;
25567;SDS011;13455;51.480;7.594;2022-09-17T09:27:55;7.68;;;1.20;;
25567;SDS011;13455;51.480;7.594;2022-09-17T09:31:08;8.13;;;1.48;;
25567;SDS011;13455;51.480;7.594;2022-09-17T09:33:34;8.70;;;1.83;;
25567;SDS011;13455;51.480;7.594;2022-09-17T09:36:10;8.48;;;1.70;;
25567;SDS011;13455;51.480;7.594;2022-09-17T09:38:43;7.13;;;1.45;;
25567;SDS011;13455;51.480;7.594;2022-09-17T09:41:19;5.57;;;1.15;;
25567;SDS011;13455;51.480;7.594;2022-09-17T09:43:56;5.10;;;1.00;;
25567;SDS011;13455;51.480;7.594;2022-09-17T09:46:36;7.80;;;1.20;;
25567;SDS011;13455;51.480;7.594;2022-09-17T09:57:49;6.97;;;1.30;;
25567;SDS011;13455;51.480;7.594;2022-09-17T10:00:25;5.70;;;1.17;;
25567;SDS011;13455;51.480;7.594;2022-09-17T10:05:37;8.10;;;1.60;;
25567;SDS011;13455;51.480;7.594;2022-09-17T10:08:13;5.97;;;1.00;;
25567;SDS011;13455;51.480;7.594;2022-09-17T10:10:53;6.65;;;1.27;;
25567;SDS011;13455;51.480;7.594;2022-09-17T10:13:20;5.30;;;1.40;;
25567;SDS011;13455;51.480;7.594;2022-09-17T10:15:46;6.37;;;1.20;;
25567;SDS011;13455;51.480;7.594;2022-09-17T10:20:52;4.70;;;0.90;;
25567;SDS011;13455;51.480;7.594;2022-09-17T10:23:19;6.03;;;1.00;;
25567;SDS011;13455;51.480;7.594;2022-09-17T10:25:46;4.47;;;0.80;;
25567;SDS011;13455;51.480;7.594;2022-09-17T10:31:02;4.00;;;0.80;;
25567;SDS011;13455;51.480;7.594;2022-09-17T10:33:32;6.25;;;1.10;;
25567;SDS011;13455;51.480;7.594;2022-09-17T10:35:59;5.28;;;0.90;;
25567;SDS011;13455;51.480;7.594;2022-09-17T10:38:30;6.30;;;1.33;;
25567;SDS011;13455;51.480;7.594;2022-09-17T10:43:37;6.65;;;0.80;;
25567;SDS011;13455;51.480;7.594;2022-09-17T10:46:03;4.63;;;0.73;;
25567;SDS011;13455;51.480;7.594;2022-09-17T10:48:33;4.03;;;0.80;;
25567;SDS011;13455;51.480;7.594;2022-09-17T10:51:01;3.23;;;0.80;;
25567;SDS011;13455;51.480;7.594;2022-09-17T10:53:30;3.90;;;0.75;;
25567;SDS011;13455;51.480;7.594;2022-09-17T10:56:14;3.87;;;0.80;;
25567;SDS011;13455;51.480;7.594;2022-09-17T10:58:47;4.68;;;0.80;;
25567;SDS011;13455;51.480;7.594;2022-09-17T11:01:37;3.93;;;0.70;;
25567;SDS011;13455;51.480;7.594;2022-09-17T11:12:16;5.53;;;0.90;;
25567;SDS011;13455;51.480;7.594;2022-09-17T11:17:45;5.30;;;0.73;;
25567;SDS011;13455;51.480;7.594;2022-09-17T11:23:08;3.97;;;0.73;;
25567;SDS011;13455;51.480;7.594;2022-09-17T11:30:40;3.00;;;0.50;;
25567;SDS011;13455;51.480;7.594;2022-09-17T11:35:51;13.52;;;0.90;;
25567;SDS011;13455;51.480;7.594;2022-09-17T11:38:25;4.10;;;0.65;;
25567;SDS011;13455;51.480;7.594;2022-09-17T11:43:32;7.82;;;0.98;;
25567;SDS011;13455;51.480;7.594;2022-09-17T11:48:49;4.82;;;0.90;;
25567;SDS011;13455;51.480;7.594;2022-09-17T11:51:22;4.40;;;0.80;;
25567;SDS011;13455;51.480;7.594;2022-09-17T11:53:54;2.83;;;0.73;;
25567;SDS011;13455;51.480;7.594;2022-09-17T11:56:27;4.60;;;0.68;;
25567;SDS011;13455;51.480;7.594;2022-09-17T12:04:00;3.88;;;0.70;;
25567;SDS011;13455;51.480;7.594;2022-09-17T12:06:43;5.10;;;0.90;;
25567;SDS011;13455;51.480;7.594;2022-09-17T12:09:12;3.85;;;0.50;;
25567;SDS011;13455;51.480;7.594;2022-09-17T12:11:42;3.57;;;0.80;;
25567;SDS011;13455;51.480;7.594;2022-09-17T12:14:15;2.20;;;0.50;;
25567;SDS011;13455;51.480;7.594;2022-09-17T12:16:43;4.65;;;0.60;;
25567;SDS011;13455;51.480;7.594;2022-09-17T12:19:12;2.60;;;0.60;;
25567;SDS011;13455;51.480;7.594;2022-09-17T12:21:47;3.40;;;0.60;;
25567;SDS011;13455;51.480;7.594;2022-09-17T12:32:13;2.38;;;0.60;;
25567;SDS011;13455;51.480;7.594;2022-09-17T12:37:23;2.75;;;0.50;;
25567;SDS011;13455;51.480;7.594;2022-09-17T12:42:51;2.03;;;0.60;;
25567;SDS011;13455;51.480;7.594;2022-09-17T12:48:24;2.10;;;0.68;;
25567;SDS011;13455;51.480;7.594;2022-09-17T12:56:21;2.67;;;0.80;;
25567;SDS011;13455;51.480;7.594;2022-09-17T13:01:33;2.70;;;0.70;;
25567;SDS011;13455;51.480;7.594;2022-09-17T13:17:22;1.85;;;0.57;;
25567;SDS011;13455;51.480;7.594;2022-09-17T13:19:53;1.90;;;0.52;;
25567;SDS011;13455;51.480;7.594;2022-09-17T13:22:25;2.42;;;0.60;;
25567;SDS011;13455;51.480;7.594;2022-09-17T13:25:05;6.95;;;1.35;;
25567;SDS011;13455;51.480;7.594;2022-09-17T13:27:33;2.92;;;0.63;;
25567;SDS011;13455;51.480;7.594;2022-09-17T13:30:03;2.88;;;0.60;;
25567;SDS011;13455;51.480;7.594;2022-09-17T13:37:33;3.60;;;0.68;;
25567;SDS011;13455;51.480;7.594;2022-09-17T13:40:03;2.17;;;0.50;;
25567;SDS011;13455;51.480;7.594;2022-09-17T13:42:31;2.50;;;0.60;;
25567;SDS011;13455;51.480;7.594;2022-09-17T13:45:08;2.45;;;0.68;;
25567;SDS011;13455;51.480;7.594;2022-09-17T13:47:36;2.45;;;0.50;;
25567;SDS011;13455;51.480;7.594;2022-09-17T13:50:08;2.22;;;0.50;;
25567;SDS011;13455;51.480;7.594;2022-09-17T13:52:47;2.28;;;0.57;;
25567;SDS011;13455;51.480;7.594;2022-09-17T13:57:59;5.07;;;0.75;;
25567;SDS011;13455;51.480;7.594;2022-09-17T14:00:46;4.40;;;0.90;;
25567;SDS011;13455;51.480;7.594;2022-09-17T14:13:46;4.80;;;0.90;;
25567;SDS011;13455;51.480;7.594;2022-09-17T14:18:54;4.55;;;0.80;;
25567;SDS011;13455;51.480;7.594;2022-09-17T14:21:23;5.07;;;0.70;;
25567;SDS011;13455;51.480;7.594;2022-09-17T14:23:54;3.08;;;0.73;;
25567;SDS011;13455;51.480;7.594;2022-09-17T14:29:25;4.47;;;0.90;;
25567;SDS011;13455;51.480;7.594;2022-09-17T14:32:14;3.65;;;0.80;;
25567;SDS011;13455;51.480;7.594;2022-09-17T14:34:51;5.05;;;1.08;;
25567;SDS011;13455;51.480;7.594;2022-09-17T14:37:18;4.00;;;0.80;;
25567;SDS011;13455;51.480;7.594;2022-09-17T14:39:45;5.15;;;1.05;;
25567;SDS011;13455;51.480;7.594;2022-09-17T14:42:14;3.88;;;0.75;;
25567;SDS011;13455;51.480;7.594;2022-09-17T14:44:46;3.43;;;0.70;;
25567;SDS011;13455;51.480;7.594;2022-09-17T14:47:14;5.45;;;1.00;;
25567;SDS011;13455;51.480;7.594;2022-09-17T14:49:42;4.40;;;1.08;;
25567;SDS011;13455;51.480;7.594;2022-09-17T14:57:53;5.13;;;0.70;;
25567;SDS011;13455;51.480;7.594;2022-09-17T15:02:49;10.57;;;1.50;;
25567;SDS011;13455;51.480;7.594;2022-09-17T15:13:19;4.18;;;0.50;;
25567;SDS011;13455;51.480;7.594;2022-09-17T15:15:50;5.33;;;0.50;;
25567;SDS011;13455;51.480;7.594;2022-09-17T15:18:31;3.53;;;0.60;;
25567;SDS011;13455;51.480;7.594;2022-09-17T15:20:58;4.18;;;0.80;;
25567;SDS011;13455;51.480;7.594;2022-09-17T15:23:25;3.50;;;0.80;;
25567;SDS011;13455;51.480;7.594;2022-09-17T15:25:54;4.82;;;0.88;;
25567;SDS011;13455;51.480;7.594;2022-09-17T15:28:30;4.35;;;0.85;;
25567;SDS011;13455;51.480;7.594;2022-09-17T15:31:00;6.03;;;0.90;;
25567;SDS011;13455;51.480;7.594;2022-09-17T15:33:40;3.58;;;1.00;;
25567;SDS011;13455;51.480;7.594;2022-09-17T15:38:44;6.78;;;0.95;;
25567;SDS011;13455;51.480;7.594;2022-09-17T15:44:06;6.63;;;0.85;;
25567;SDS011;13455;51.480;7.594;2022-09-17T15:46:41;4.88;;;0.90;;
25567;SDS011;13455;51.480;7.594;2022-09-17T15:49:25;6.50;;;1.20;;
25567;SDS011;13455;51.480;7.594;2022-09-17T15:51:51;5.90;;;1.10;;
25567;SDS011;13455;51.480;7.594;2022-09-17T15:54:27;5.30;;;1.00;;
25567;SDS011;13455;51.480;7.594;2022-09-17T15:56:55;4.10;;;1.00;;
25567;SDS011;13455;51.480;7.594;2022-09-17T15:59:24;3.40;;;1.02;;
25567;SDS011;13455;51.480;7.594;2022-09-17T16:01:53;5.97;;;1.00;;
25567;SDS011;13455;51.480;7.594;2022-09-17T16:06:57;5.23;;;1.00;;
25567;SDS011;13455;51.480;7.594;2022-09-17T16:09:35;4.63;;;0.90;;
25567;SDS011;13455;51.480;7.594;2022-09-17T16:12:03;6.45;;;1.30;;
25567;SDS011;13455;51.480;7.594;2022-09-17T16:14:29;6.32;;;1.00;;
25567;SDS011;13455;51.480;7.594;2022-09-17T16:16:55;5.55;;;1.20;;
25567;SDS011;13455;51.480;7.594;2022-09-17T16:19:22;6.90;;;1.00;;
25567;SDS011;13455;51.480;7.594;2022-09-17T16:21:48;5.60;;;1.25;;
25567;SDS011;13455;51.480;7.594;2022-09-17T16:24:14;5.05;;;1.00;;
25567;SDS011;13455;51.480;7.594;2022-09-17T16:26:40;5.95;;;1.10;;
25567;SDS011;13455;51.480;7.594;2022-09-17T16:29:07;7.05;;;1.42;;
25567;SDS011;13455;51.480;7.594;2022-09-17T16:31:35;5.65;;;1.30;;
25567;SDS011;13455;51.480;7.594;2022-09-17T16:34:01;8.63;;;1.10;;
25567;SDS011;13455;51.480;7.594;2022-09-17T16:36:27;5.63;;;1.40;;
25567;SDS011;13455;51.480;7.594;2022-09-17T16:38:55;4.60;;;1.00;;
25567;SDS011;13455;51.480;7.594;2022-09-17T16:41:20;5.17;;;0.90;;
25567;SDS011;13455;51.480;7.594;2022-09-17T16:43:46;4.13;;;1.00;;
25567;SDS011;13455;51.480;7.594;2022-09-17T16:46:12;5.83;;;1.00;;
25567;SDS011;13455;51.480;7.594;2022-09-17T16:48:38;4.60;;;1.00;;
25567;SDS011;13455;51.480;7.594;2022-09-17T16:51:06;4.57;;;0.97;;
25567;SDS011;13455;51.480;7.594;2022-09-17T16:53:32;5.43;;;1.10;;
25567;SDS011;13455;51.480;7.594;2022-09-17T16:55:58;6.00;;;1.30;;
25567;SDS011;13455;51.480;7.594;2022-09-17T16:58:24;6.80;;;1.42;;
25567;SDS011;13455;51.480;7.594;2022-09-17T17:00:50;6.35;;;1.23;;
25567;SDS011;13455;51.480;7.594;2022-09-17T17:03:19;5.90;;;1.13;;
25567;SDS011;13455;51.480;7.594;2022-09-17T17:05:45;5.47;;;1.40;;
25567;SDS011;13455;51.480;7.594;2022-09-17T17:08:10;5.00;;;1.00;;
25567;SDS011;13455;51.480;7.594;2022-09-17T17:10:38;7.10;;;1.35;;
25567;SDS011;13455;51.480;7.594;2022-09-17T17:13:04;6.85;;;1.15;;
25567;SDS011;13455;51.480;7.594;2022-09-17T17:15:30;7.10;;;1.17;;
25567;SDS011;13455;51.480;7.594;2022-09-17T17:17:56;7.60;;;1.47;;
25567;SDS011;13455;51.480;7.594;2022-09-17T17:20:22;7.33;;;1.27;;
25567;SDS011;13455;51.480;7.594;2022-09-17T17:22:48;9.03;;;1.80;;
25567;SDS011;13455;51.480;7.594;2022-09-17T17:25:17;6.53;;;1.10;;
25567;SDS011;13455;51.480;7.594;2022-09-17T17:27:43;6.85;;;1.50;;
25567;SDS011;13455;51.480;7.594;2022-09-17T17:30:09;7.25;;;1.52;;
25567;SDS011;13455;51.480;7.594;2022-09-17T17:32:40;6.63;;;1.10;;
25567;SDS011;13455;51.480;7.594;2022-09-17T17:35:06;8.30;;;1.30;;
25567;SDS011;13455;51.480;7.594;2022-09-17T17:37:33;6.55;;;1.40;;
25567;SDS011;13455;51.480;7.594;2022-09-17T17:39:58;7.72;;;1.33;;
25567;SDS011;13455;51.480;7.594;2022-09-17T17:42:25;7.38;;;1.40;;
25567;SDS011;13455;51.480;7.594;2022-09-17T17:44:52;5.63;;;1.10;;
25567;SDS011;13455;51.480;7.594;2022-09-17T17:47:19;8.60;;;1.40;;
25567;SDS011;13455;51.480;7.594;2022-09-17T17:49:45;7.15;;;1.25;;
25567;SDS011;13455;51.480;7.594;2022-09-17T17:52:12;7.53;;;1.13;;
25567;SDS011;13455;51.480;7.594;2022-09-17T17:54:38;7.13;;;1.30;;
25567;SDS011;13455;51.480;7.594;2022-09-17T17:57:04;5.17;;;1.17;;
25567;SDS011;13455;51.480;7.594;2022-09-17T17:59:30;8.77;;;1.45;;
25567;SDS011;13455;51.480;7.594;2022-09-17T18:01:56;6.03;;;1.30;;
25567;SDS011;13455;51.480;7.594;2022-09-17T18:04:22;8.23;;;1.30;;
25567;SDS011;13455;51.480;7.594;2022-09-17T18:06:47;7.50;;;1.40;;
25567;SDS011;13455;51.480;7.594;2022-09-17T18:09:13;7.17;;;1.27;;
25567;SDS011;13455;51.480;7.594;2022-09-17T18:11:39;7.03;;;1.60;;